createdAt,value
2023-02-21T00:02:41.578Z,6.30
2023-02-21T00:05:26.848Z,6.30
2023-02-21T00:08:12.134Z,6.30
2023-02-21T00:10:57.420Z,6.40
2023-02-21T00:13:42.520Z,6.30
2023-02-21T00:16:27.640Z,6.30
2023-02-21T00:19:12.993Z,6.40
2023-02-21T00:21:58.137Z,6.40
2023-02-21T00:24:43.440Z,6.30
2023-02-21T00:27:28.616Z,6.20
2023-02-21T00:30:14.116Z,6.30
2023-02-21T00:33:00.768Z,6.20
2023-02-21T00:35:48.184Z,6.20
2023-02-21T00:38:33.483Z,6.20
2023-02-21T00:41:18.658Z,6.20
2023-02-21T00:44:03.991Z,6.20
2023-02-21T00:46:49.426Z,6.20
2023-02-21T00:49:34.536Z,6.20
2023-02-21T00:52:20.004Z,6.20
2023-02-21T00:55:05.551Z,6.20
2023-02-21T00:57:50.819Z,6.20
2023-02-21T01:00:39.847Z,6.20
2023-02-21T01:03:26.268Z,6.20
2023-02-21T01:06:12.116Z,6.10
2023-02-21T01:09:02.960Z,6.10
2023-02-21T01:11:49.267Z,6.20
2023-02-21T01:14:34.599Z,6.10
2023-02-21T01:17:20.151Z,6.20
2023-02-21T01:20:05.250Z,6.10
2023-02-21T01:22:52.723Z,6.10
2023-02-21T01:25:39.110Z,6.10
2023-02-21T01:28:24.497Z,6.20
2023-02-21T01:31:09.808Z,6.10
2023-02-21T01:33:59.774Z,6.10
2023-02-21T01:36:45.497Z,6.10
2023-02-21T01:39:31.387Z,6.10
2023-02-21T01:42:18.946Z,6.10
2023-02-21T01:45:06.616Z,6.10
2023-02-21T01:47:52.254Z,6.10
2023-02-21T01:50:47.876Z,6.10
2023-02-21T01:53:38.591Z,6.10
2023-02-21T01:56:25.452Z,6.00
2023-02-21T01:59:14.212Z,6.00
2023-02-21T02:02:46.361Z,6.00
2023-02-21T02:05:32.248Z,6.10
2023-02-21T02:08:18.001Z,6.00
2023-02-21T02:11:04.737Z,6.00
2023-02-21T02:14:04.498Z,6.00
2023-02-21T02:16:45.657Z,6.00
2023-02-21T02:19:47.165Z,6.00
2023-02-21T02:22:31.495Z,6.00
2023-02-21T02:25:18.400Z,6.00
2023-02-21T02:28:02.625Z,6.00
2023-02-21T02:31:14.797Z,6.00
2023-02-21T02:34:18.061Z,5.90
2023-02-21T02:36:56.588Z,6.00
2023-02-21T02:39:41.414Z,5.90
2023-02-21T02:42:37.667Z,5.90
2023-02-21T02:45:14.143Z,5.90
2023-02-21T02:47:44.310Z,5.90
2023-02-21T02:50:12.485Z,5.80
2023-02-21T02:52:50.412Z,5.80
2023-02-21T02:55:51.050Z,5.80
2023-02-21T02:58:22.590Z,5.80
2023-02-21T03:01:07.029Z,5.80
2023-02-21T03:03:52.502Z,5.70
2023-02-21T03:06:33.861Z,5.80
2023-02-21T03:09:14.108Z,5.80
2023-02-21T03:11:58.176Z,5.80
2023-02-21T03:14:35.136Z,5.70
2023-02-21T03:17:09.278Z,5.70
2023-02-21T03:19:40.028Z,5.70
2023-02-21T03:22:20.089Z,5.60
2023-02-21T03:24:49.670Z,5.60
2023-02-21T03:27:17.934Z,5.60
2023-02-21T03:29:46.742Z,5.60
2023-02-21T03:32:32.376Z,5.60
2023-02-21T03:35:01.706Z,5.60
2023-02-21T03:37:40.940Z,5.60
2023-02-21T03:40:16.614Z,5.60
2023-02-21T03:42:47.448Z,5.70
2023-02-21T03:45:16.769Z,5.70
2023-02-21T03:47:48.191Z,5.60
2023-02-21T03:50:15.798Z,5.70
2023-02-21T03:52:44.365Z,5.70
2023-02-21T03:55:11.366Z,5.60
2023-02-21T03:57:38.219Z,5.60
2023-02-21T04:00:05.454Z,5.60
2023-02-21T04:02:42.164Z,5.60
2023-02-21T04:05:11.803Z,5.50
2023-02-21T04:07:38.634Z,5.50
2023-02-21T04:10:06.071Z,5.50
2023-02-21T04:12:39.729Z,5.40
2023-02-21T04:15:06.924Z,5.40
2023-02-21T04:17:34.375Z,5.40
2023-02-21T04:20:03.674Z,5.60
2023-02-21T04:22:33.158Z,5.50
2023-02-21T04:24:59.977Z,5.50
2023-02-21T04:27:27.262Z,5.40
2023-02-21T04:29:56.233Z,5.40
2023-02-21T04:32:23.138Z,5.30
2023-02-21T04:34:50.044Z,5.30
2023-02-21T04:37:17.326Z,5.40
2023-02-21T04:39:44.434Z,5.30
2023-02-21T04:42:11.368Z,5.30
2023-02-21T04:44:40.283Z,5.40
2023-02-21T04:47:10.359Z,5.30
2023-02-21T04:49:37.109Z,5.20
2023-02-21T04:52:04.035Z,5.30
2023-02-21T04:54:30.732Z,5.20
2023-02-21T04:56:57.464Z,5.20
2023-02-21T04:59:24.273Z,5.20
2023-02-21T05:01:51.314Z,5.20
2023-02-21T05:04:18.092Z,5.20
2023-02-21T05:06:44.922Z,5.10
2023-02-21T05:09:11.643Z,5.10
2023-02-21T05:11:38.392Z,5.10
2023-02-21T05:14:05.224Z,5.00
2023-02-21T05:16:32.172Z,5.00
2023-02-21T05:18:58.972Z,4.90
2023-02-21T05:21:25.745Z,4.90
2023-02-21T05:23:58.453Z,4.90
2023-02-21T05:26:31.455Z,4.90
2023-02-21T05:28:58.601Z,4.90
2023-02-21T05:31:25.410Z,4.90
2023-02-21T05:33:52.350Z,4.90
2023-02-21T05:36:19.180Z,5.00
2023-02-21T05:38:52.644Z,4.90
2023-02-21T05:41:20.952Z,5.00
2023-02-21T05:43:49.486Z,5.00
2023-02-21T05:46:22.939Z,5.10
2023-02-21T05:48:50.101Z,5.10
2023-02-21T05:51:17.543Z,5.20
2023-02-21T05:53:44.568Z,5.00
2023-02-21T05:56:11.972Z,5.10
2023-02-21T05:58:38.696Z,5.10
2023-02-21T06:01:06.639Z,5.10
2023-02-21T06:03:33.674Z,5.20
2023-02-21T06:06:00.867Z,5.20
2023-02-21T06:08:27.664Z,5.10
2023-02-21T06:10:54.545Z,5.20
2023-02-21T06:13:21.287Z,5.10
2023-02-21T06:15:48.078Z,5.00
2023-02-21T06:18:16.429Z,5.10
2023-02-21T06:20:44.046Z,5.00
2023-02-21T06:23:10.829Z,5.00
2023-02-21T06:25:37.590Z,5.00
2023-02-21T06:28:04.877Z,5.00
2023-02-21T06:30:31.681Z,5.00
2023-02-21T06:32:58.434Z,5.00
2023-02-21T06:35:25.159Z,4.90
2023-02-21T06:37:51.857Z,4.90
2023-02-21T06:40:18.660Z,4.90
2023-02-21T06:42:45.367Z,5.10
2023-02-21T06:45:12.115Z,5.10
2023-02-21T06:47:38.921Z,5.00
2023-02-21T06:50:07.160Z,5.00
2023-02-21T06:52:34.770Z,5.00
2023-02-21T06:55:01.567Z,5.00
2023-02-21T06:57:28.289Z,5.00
2023-02-21T06:59:55.057Z,5.00
2023-02-21T07:02:21.820Z,5.00
2023-02-21T07:04:48.707Z,5.00
2023-02-21T07:07:16.366Z,4.90
2023-02-21T07:09:43.149Z,4.90
2023-02-21T07:12:09.982Z,5.00
2023-02-21T07:14:36.749Z,5.00
2023-02-21T07:17:03.689Z,5.00
2023-02-21T07:19:30.509Z,4.90
2023-02-21T07:21:57.224Z,5.00
2023-02-21T07:24:23.972Z,5.20
2023-02-21T07:26:50.822Z,5.20
2023-02-21T07:29:17.630Z,5.10
2023-02-21T07:31:44.630Z,5.20
2023-02-21T07:34:12.309Z,5.20
2023-02-21T07:36:40.317Z,5.20
2023-02-21T07:39:07.195Z,5.20
2023-02-21T07:41:33.945Z,5.30
2023-02-21T07:44:00.671Z,5.30
2023-02-21T07:46:29.261Z,5.30
2023-02-21T07:48:56.611Z,5.30
2023-02-21T07:51:23.389Z,5.40
2023-02-21T07:53:50.280Z,5.60
2023-02-21T07:56:17.028Z,5.80
2023-02-21T07:58:43.751Z,5.80
2023-02-21T08:01:10.540Z,5.90
2023-02-21T08:03:37.895Z,5.90
2023-02-21T08:06:05.140Z,5.90
2023-02-21T08:08:31.998Z,6.00
2023-02-21T08:10:58.711Z,6.00
2023-02-21T08:13:25.427Z,6.10
2023-02-21T08:15:52.212Z,6.10
2023-02-21T08:18:24.147Z,6.30
2023-02-21T08:20:52.332Z,6.20
2023-02-21T08:23:19.647Z,6.40
2023-02-21T08:25:47.336Z,6.30
2023-02-21T08:28:15.233Z,6.30
2023-02-21T08:30:42.201Z,6.50
2023-02-21T08:33:09.260Z,6.50
2023-02-21T08:35:36.035Z,6.50
2023-02-21T08:38:03.937Z,6.50
2023-02-21T08:40:31.681Z,6.50
2023-02-21T08:43:00.375Z,6.80
2023-02-21T08:45:28.656Z,7.00
2023-02-21T08:47:55.833Z,7.00
2023-02-21T08:50:24.283Z,7.20
2023-02-21T08:52:51.990Z,7.20
2023-02-21T08:55:19.821Z,7.30
2023-02-21T08:57:51.826Z,7.20
2023-02-21T09:00:23.279Z,7.50
2023-02-21T09:02:51.340Z,7.40
2023-02-21T09:05:24.700Z,7.30
2023-02-21T09:07:55.021Z,7.60
2023-02-21T09:10:21.973Z,7.60
2023-02-21T09:12:48.796Z,7.70
2023-02-21T09:15:16.849Z,7.60
2023-02-21T09:17:44.013Z,7.50
2023-02-21T09:20:13.803Z,7.60
2023-02-21T09:22:44.954Z,7.70
2023-02-21T09:25:13.182Z,7.70
2023-02-21T09:27:40.736Z,7.90
2023-02-21T09:30:12.094Z,7.70
2023-02-21T09:32:39.947Z,7.70
2023-02-21T09:35:07.791Z,7.70
2023-02-21T09:37:38.972Z,7.80
2023-02-21T09:40:16.578Z,7.70
2023-02-21T09:42:43.479Z,7.80
2023-02-21T09:45:16.259Z,7.90
2023-02-21T09:47:49.108Z,8.00
2023-02-21T09:50:18.754Z,8.00
2023-02-21T09:52:46.701Z,8.10
2023-02-21T09:55:20.380Z,8.10
2023-02-21T09:57:47.316Z,8.10
2023-02-21T10:00:24.618Z,8.10
2023-02-21T10:02:51.383Z,8.20
2023-02-21T10:05:43.140Z,8.30
2023-02-21T10:08:37.249Z,8.70
2023-02-21T10:11:31.321Z,8.50
2023-02-21T10:14:39.500Z,8.50
2023-02-21T10:17:18.228Z,8.40
2023-02-21T10:19:51.311Z,8.80
2023-02-21T10:22:23.341Z,8.80
2023-02-21T10:24:51.473Z,8.90
2023-02-21T10:27:21.729Z,8.90
2023-02-21T10:30:00.350Z,9.10
2023-02-21T10:32:28.406Z,9.00
2023-02-21T10:34:55.284Z,9.00
2023-02-21T10:37:41.899Z,9.00
2023-02-21T10:40:35.652Z,8.80
2023-02-21T10:43:11.348Z,8.80
2023-02-21T10:46:04.165Z,8.80
2023-02-21T10:48:36.423Z,8.90
2023-02-21T10:51:18.337Z,8.80
2023-02-21T10:53:47.395Z,8.80
2023-02-21T10:56:19.879Z,8.90
2023-02-21T10:58:54.073Z,8.90
2023-02-21T11:01:27.179Z,9.10
2023-02-21T11:04:07.401Z,9.10
2023-02-21T11:06:39.808Z,9.10
2023-02-21T11:09:26.997Z,9.30
2023-02-21T11:12:20.249Z,9.80
2023-02-21T11:14:52.886Z,10.00
2023-02-21T11:17:24.820Z,10.00
2023-02-21T11:19:53.663Z,10.10
2023-02-21T11:22:26.440Z,10.00
2023-02-21T11:24:59.843Z,10.20
2023-02-21T11:27:29.555Z,10.30
2023-02-21T11:29:56.713Z,10.20
2023-02-21T11:32:28.465Z,10.20
2023-02-21T11:35:15.822Z,10.20
2023-02-21T11:37:52.398Z,10.10
2023-02-21T11:40:50.072Z,10.20
2023-02-21T11:43:20.004Z,10.50
2023-02-21T11:45:55.882Z,10.60
2023-02-21T11:48:31.032Z,10.50
2023-02-21T11:51:00.829Z,10.70
2023-02-21T11:53:35.525Z,10.60
2023-02-21T11:56:28.267Z,10.80
2023-02-21T11:59:21.331Z,10.90
2023-02-21T12:02:22.535Z,11.10
2023-02-21T12:05:16.621Z,10.90
2023-02-21T12:08:04.677Z,11.00
2023-02-21T12:10:50.234Z,11.00
2023-02-21T12:14:00.450Z,11.10
2023-02-21T12:16:39.160Z,11.00
2023-02-21T12:19:24.064Z,10.80
2023-02-21T12:22:08.703Z,10.90
2023-02-21T12:24:57.507Z,10.90
2023-02-21T12:28:05.147Z,11.00
2023-02-21T12:30:40.493Z,11.00
2023-02-21T12:33:25.675Z,11.10
2023-02-21T12:36:22.943Z,11.20
2023-02-21T12:39:11.928Z,11.30
2023-02-21T12:41:55.523Z,11.40
2023-02-21T12:44:32.910Z,11.60
2023-02-21T12:47:07.279Z,11.60
2023-02-21T12:49:55.862Z,11.70
2023-02-21T12:52:36.049Z,11.70
2023-02-21T12:55:05.056Z,12.00
2023-02-21T12:57:53.320Z,12.20
2023-02-21T13:00:28.869Z,12.30
2023-02-21T13:03:23.664Z,12.20
2023-02-21T13:06:09.266Z,12.30
2023-02-21T13:08:50.440Z,12.30
2023-02-21T13:11:25.667Z,12.20
2023-02-21T13:13:52.412Z,12.30
2023-02-21T13:16:19.948Z,12.40
2023-02-21T13:18:59.340Z,12.60
2023-02-21T13:21:49.366Z,12.70
2023-02-21T13:24:35.185Z,12.70
2023-02-21T13:27:23.641Z,12.80
2023-02-21T13:29:50.826Z,12.90
2023-02-21T13:32:22.465Z,12.90
2023-02-21T13:35:00.327Z,13.00
2023-02-21T13:37:30.732Z,13.30
2023-02-21T13:40:07.227Z,13.70
2023-02-21T13:42:37.198Z,13.70
2023-02-21T13:45:24.416Z,14.00
2023-02-21T13:48:00.109Z,14.30
2023-02-21T13:50:54.533Z,14.50
2023-02-21T13:53:33.913Z,14.70
2023-02-21T13:56:00.620Z,14.70
2023-02-21T13:58:45.837Z,14.90
2023-02-21T14:01:30.708Z,14.80
2023-02-21T14:03:58.098Z,14.90
2023-02-21T14:06:34.963Z,15.00
2023-02-21T14:09:19.895Z,15.10
2023-02-21T14:11:50.570Z,15.30
2023-02-21T14:14:30.751Z,14.90
2023-02-21T14:17:07.674Z,15.10
2023-02-21T14:19:46.047Z,15.30
2023-02-21T14:22:26.172Z,15.20
2023-02-21T14:25:06.883Z,15.40
2023-02-21T14:27:36.441Z,15.40
2023-02-21T14:30:12.504Z,15.70
2023-02-21T14:32:51.342Z,15.90
2023-02-21T14:35:21.059Z,15.80
2023-02-21T14:38:17.815Z,15.70
2023-02-21T14:40:50.338Z,15.70
2023-02-21T14:43:27.001Z,15.70
2023-02-21T14:46:22.515Z,15.50
2023-02-21T14:48:55.253Z,15.30
2023-02-21T14:52:03.917Z,15.10
2023-02-21T14:55:10.714Z,15.00
2023-02-21T14:58:14.926Z,14.80
2023-02-21T15:01:05.437Z,14.70
2023-02-21T15:04:04.815Z,14.80
2023-02-21T15:06:33.047Z,14.70
2023-02-21T15:09:12.784Z,14.70
2023-02-21T15:11:40.848Z,14.60
2023-02-21T15:14:24.138Z,14.40
2023-02-21T15:17:11.992Z,14.50
2023-02-21T15:19:39.253Z,14.70
2023-02-21T15:22:16.075Z,14.60
2023-02-21T15:25:04.800Z,14.60
2023-02-21T15:27:31.614Z,14.40
2023-02-21T15:30:27.116Z,14.40
2023-02-21T15:33:20.130Z,14.50
2023-02-21T15:35:52.451Z,14.30
2023-02-21T15:38:33.086Z,14.10
2023-02-21T15:41:04.592Z,14.10
2023-02-21T15:43:46.745Z,14.20
2023-02-21T15:46:20.720Z,13.90
2023-02-21T15:48:48.978Z,13.80
2023-02-21T15:51:17.353Z,13.50
2023-02-21T15:54:05.139Z,13.60
2023-02-21T15:56:31.940Z,13.50
2023-02-21T15:59:19.707Z,13.20
2023-02-21T16:02:07.536Z,13.10
2023-02-21T16:04:48.006Z,13.10
2023-02-21T16:07:37.353Z,13.10
2023-02-21T16:10:08.339Z,13.00
2023-02-21T16:12:43.484Z,12.90
2023-02-21T16:15:13.351Z,12.80
2023-02-21T16:17:41.493Z,12.80
2023-02-21T16:20:20.636Z,12.70
2023-02-21T16:23:11.547Z,12.70
2023-02-21T16:25:56.961Z,12.50
2023-02-21T16:28:23.879Z,12.10
2023-02-21T16:30:51.193Z,12.00
2023-02-21T16:33:18.180Z,11.90
2023-02-21T16:35:45.064Z,11.80
2023-02-21T16:38:15.304Z,11.90
2023-02-21T16:40:42.105Z,11.70
2023-02-21T16:43:17.466Z,11.60
2023-02-21T16:45:44.339Z,11.20
2023-02-21T16:48:28.735Z,11.00
2023-02-21T16:50:55.754Z,10.80
2023-02-21T16:53:23.194Z,10.50
2023-02-21T16:55:50.987Z,10.30
2023-02-21T16:58:26.015Z,10.40
2023-02-21T17:01:00.758Z,10.00
2023-02-21T17:03:29.203Z,9.70
2023-02-21T17:05:57.899Z,9.60
2023-02-21T17:08:25.974Z,9.40
2023-02-21T17:10:53.124Z,9.30
2023-02-21T17:13:19.868Z,9.30
2023-02-21T17:15:47.704Z,9.40
2023-02-21T17:18:14.942Z,9.30
2023-02-21T17:20:41.761Z,9.10
2023-02-21T17:23:08.530Z,9.00
2023-02-21T17:25:36.437Z,8.90
2023-02-21T17:28:03.664Z,8.80
2023-02-21T17:30:31.504Z,8.70
2023-02-21T17:32:58.457Z,8.60
2023-02-21T17:35:25.187Z,8.40
2023-02-21T17:38:02.708Z,8.50
2023-02-21T17:40:30.117Z,8.60
2023-02-21T17:42:57.670Z,8.60
2023-02-21T17:45:26.270Z,8.60
2023-02-21T17:47:55.953Z,8.60
2023-02-21T17:50:22.744Z,8.70
2023-02-21T17:52:49.500Z,8.70
2023-02-21T17:55:25.910Z,8.70
2023-02-21T17:57:53.132Z,8.40
2023-02-21T18:00:24.595Z,8.30
2023-02-21T18:02:53.179Z,8.30
2023-02-21T18:05:20.427Z,8.40
2023-02-21T18:07:52.095Z,8.40
2023-02-21T18:10:21.385Z,8.40
2023-02-21T18:12:50.822Z,8.40
2023-02-21T18:15:20.863Z,8.30
2023-02-21T18:17:47.850Z,8.30
2023-02-21T18:20:16.335Z,8.30
2023-02-21T18:22:43.794Z,8.40
2023-02-21T18:25:16.551Z,8.30
2023-02-21T18:27:43.744Z,8.20
2023-02-21T18:30:11.034Z,8.20
2023-02-21T18:32:37.911Z,8.20
2023-02-21T18:35:04.962Z,8.10
2023-02-21T18:37:31.689Z,8.10
2023-02-21T18:39:58.443Z,8.10
2023-02-21T18:42:25.225Z,8.10
2023-02-21T18:44:52.588Z,8.10
2023-02-21T18:47:20.218Z,8.10
2023-02-21T18:49:48.041Z,7.90
2023-02-21T18:52:16.086Z,8.00
2023-02-21T18:54:48.865Z,7.90
2023-02-21T18:57:17.377Z,7.80
2023-02-21T18:59:44.195Z,7.70
2023-02-21T19:02:16.852Z,7.70
2023-02-21T19:04:44.281Z,7.70
2023-02-21T19:07:19.005Z,7.80
2023-02-21T19:09:47.504Z,7.60
2023-02-21T19:12:14.387Z,7.60
2023-02-21T19:14:41.188Z,7.60
2023-02-21T19:17:09.208Z,7.60
2023-02-21T19:19:37.047Z,7.70
2023-02-21T19:22:05.085Z,7.70
2023-02-21T19:24:31.893Z,7.70
2023-02-21T19:26:58.879Z,7.70
2023-02-21T19:29:25.819Z,7.50
2023-02-21T19:31:53.991Z,7.50
2023-02-21T19:34:20.945Z,7.50
2023-02-21T19:36:48.678Z,7.40
2023-02-21T19:39:15.663Z,7.20
2023-02-21T19:41:42.504Z,7.00
2023-02-21T19:44:09.314Z,7.00
2023-02-21T19:46:36.063Z,7.10
2023-02-21T19:49:06.835Z,7.00
2023-02-21T19:51:34.227Z,6.90
2023-02-21T19:54:01.341Z,6.80
2023-02-21T19:56:28.328Z,6.70
2023-02-21T19:58:55.222Z,6.60
2023-02-21T20:01:22.518Z,6.50
2023-02-21T20:03:50.135Z,6.50
2023-02-21T20:06:18.338Z,6.60
2023-02-21T20:08:48.711Z,6.50
2023-02-21T20:11:19.810Z,6.50
2023-02-21T20:13:46.845Z,6.50
2023-02-21T20:16:15.471Z,6.50
2023-02-21T20:18:43.160Z,6.50
2023-02-21T20:21:10.603Z,6.40
2023-02-21T20:23:37.396Z,6.50
2023-02-21T20:26:04.334Z,6.70
2023-02-21T20:28:31.141Z,6.90
2023-02-21T20:30:58.569Z,7.00
2023-02-21T20:33:25.486Z,6.90
2023-02-21T20:35:52.650Z,6.90
2023-02-21T20:38:19.756Z,6.70
2023-02-21T20:40:48.231Z,6.60
2023-02-21T20:43:14.985Z,6.60
2023-02-21T20:45:41.707Z,6.70
2023-02-21T20:48:10.993Z,6.80
2023-02-21T20:50:38.203Z,6.90
2023-02-21T20:53:05.742Z,6.90
2023-02-21T20:55:32.652Z,6.70
2023-02-21T20:57:59.408Z,6.70
2023-02-21T21:00:30.291Z,6.60
2023-02-21T21:02:57.401Z,6.80
2023-02-21T21:05:24.145Z,6.60
2023-02-21T21:07:52.763Z,6.60
2023-02-21T21:10:19.685Z,6.50
2023-02-21T21:12:46.523Z,6.40
2023-02-21T21:15:14.334Z,6.30
2023-02-21T21:17:41.762Z,6.40
2023-02-21T21:20:10.395Z,6.50
2023-02-21T21:22:37.164Z,6.60
2023-02-21T21:25:04.771Z,6.60
2023-02-21T21:27:32.722Z,6.60
2023-02-21T21:30:01.033Z,6.40
2023-02-21T21:32:28.265Z,6.40
2023-02-21T21:34:57.628Z,6.20
2023-02-21T21:37:27.150Z,6.10
2023-02-21T21:39:54.736Z,6.10
2023-02-21T21:42:25.034Z,6.10
2023-02-21T21:44:53.673Z,6.00
2023-02-21T21:47:28.289Z,5.90
2023-02-21T21:49:55.304Z,5.80
2023-02-21T21:52:23.806Z,6.10
2023-02-21T21:54:50.942Z,6.20
2023-02-21T21:57:18.653Z,6.40
2023-02-21T21:59:49.369Z,6.50
2023-02-21T22:02:16.119Z,6.60
2023-02-21T22:04:43.094Z,6.70
2023-02-21T22:07:10.459Z,6.70
2023-02-21T22:09:37.785Z,6.90
2023-02-21T22:12:06.083Z,6.90
2023-02-21T22:14:33.344Z,6.90
2023-02-21T22:17:00.293Z,6.90
2023-02-21T22:19:28.001Z,6.90
2023-02-21T22:21:55.178Z,6.90
2023-02-21T22:24:24.293Z,7.00
2023-02-21T22:26:54.946Z,7.00
2023-02-21T22:29:22.570Z,7.00
2023-02-21T22:31:51.975Z,6.90
2023-02-21T22:34:25.524Z,6.90
2023-02-21T22:36:57.348Z,6.90
2023-02-21T22:39:25.500Z,6.80
2023-02-21T22:41:52.775Z,6.80
2023-02-21T22:44:19.895Z,6.80
2023-02-21T22:46:50.467Z,6.80
2023-02-21T22:49:17.256Z,6.80
2023-02-21T22:51:44.240Z,6.70
2023-02-21T22:54:14.398Z,6.70
2023-02-21T22:56:50.657Z,6.70
2023-02-21T22:59:24.285Z,6.70
2023-02-21T23:01:51.277Z,6.70
2023-02-21T23:04:25.706Z,6.70
2023-02-21T23:06:58.191Z,6.70
2023-02-21T23:09:26.474Z,6.70
2023-02-21T23:11:55.850Z,6.70
2023-02-21T23:14:22.985Z,6.70
2023-02-21T23:16:50.524Z,6.80
2023-02-21T23:19:17.623Z,6.80
2023-02-21T23:21:47.041Z,6.80
2023-02-21T23:24:15.768Z,6.80
2023-02-21T23:26:46.163Z,6.80
2023-02-21T23:29:19.895Z,6.80
2023-02-21T23:31:48.588Z,6.70
2023-02-21T23:34:16.106Z,6.70
2023-02-21T23:36:44.343Z,6.70
2023-02-21T23:39:15.017Z,6.70
2023-02-21T23:41:43.078Z,6.70
2023-02-21T23:44:12.326Z,6.60
2023-02-21T23:46:42.457Z,6.70
2023-02-21T23:49:15.496Z,6.70
2023-02-21T23:51:43.653Z,6.70
2023-02-21T23:54:11.319Z,6.70
2023-02-21T23:56:40.139Z,6.80
2023-02-21T23:59:07.705Z,6.70
